Time;durP1;ratioP1;P1;durP2;ratioP2;P2;SDS_P1;SDS_P2;PMS_P1;PMS_P2;Temp;Humidity;BMP_temperature;BMP_pressure;BME280_temperature;BME280_humidity;BME280_pressure;Samples;Min_cycle;Max_cycle;Signal;HPM_P1;HPM_P2
2021/10/10 00:06:26;;;;;;;7.63;5.32;;;19.40;63.40;;;;;;20658166;28;20057;-63
2021/10/10 00:16:26;;;;;;;8.45;5.38;;;19.40;63.20;;;;;;20656673;28;20019;-62
2021/10/10 00:26:27;;;;;;;6.40;4.37;;;19.40;63.30;;;;;;20655643;28;20106;-62
2021/10/10 00:36:27;;;;;;;7.88;4.60;;;19.30;63.00;;;;;;20660536;28;20054;-63
2021/10/10 00:46:28;;;;;;;6.38;4.93;;;19.30;62.40;;;;;;20655347;28;20026;-63
2021/10/10 00:56:29;;;;;;;9.25;4.70;;;19.30;62.40;;;;;;20655155;28;20037;-63
2021/10/10 01:16:41;;;;;;;9.25;5.55;;;19.30;62.40;;;;;;21464707;23;20058;-52
2021/10/10 01:26:41;;;;;;;5.90;4.95;;;19.20;61.90;;;;;;20686159;28;20033;-57
2021/10/10 01:36:42;;;;;;;9.50;5.97;;;19.20;61.70;;;;;;20659798;28;20520;-58
2021/10/10 01:46:43;;;;;;;7.75;4.88;;;19.10;61.50;;;;;;20665028;28;20026;-57
2021/10/10 01:56:44;;;;;;;6.00;5.05;;;19.20;61.50;;;;;;20659693;28;20030;-56
2021/10/10 02:06:44;;;;;;;6.28;5.15;;;19.10;61.20;;;;;;20662013;28;20030;-58
2021/10/10 02:16:45;;;;;;;7.40;5.05;;;19.10;61.20;;;;;;20655329;28;20392;-57
2021/10/10 02:26:45;;;;;;;9.98;5.10;;;19.10;61.00;;;;;;20655526;28;20484;-56
2021/10/10 02:36:46;;;;;;;7.97;4.95;;;19.00;61.00;;;;;;20662952;28;20488;-55
2021/10/10 02:46:46;;;;;;;7.75;4.93;;;19.00;60.80;;;;;;20654128;28;20037;-54
2021/10/10 02:56:47;;;;;;;7.75;4.40;;;19.00;60.60;;;;;;20661427;28;20038;-56
2021/10/10 03:06:47;;;;;;;9.32;5.70;;;19.00;60.60;;;;;;20652462;28;20033;-58
2021/10/10 03:16:48;;;;;;;8.88;4.47;;;19.00;60.40;;;;;;20651231;28;20056;-57
2021/10/10 03:26:48;;;;;;;6.28;4.53;;;19.00;60.30;;;;;;20651168;28;20121;-58
2021/10/10 03:36:51;;;;;;;5.93;4.00;;;19.00;60.10;;;;;;20649518;28;20034;-59
2021/10/10 03:46:51;;;;;;;6.72;4.97;;;19.00;60.00;;;;;;20654293;28;20125;-59
2021/10/10 03:56:53;;;;;;;11.57;5.43;;;18.90;59.90;;;;;;20647482;28;20125;-54
2021/10/10 04:06:53;;;;;;;5.53;4.20;;;18.90;60.00;;;;;;20648644;28;20054;-56
2021/10/10 04:16:54;;;;;;;6.28;4.82;;;18.90;59.90;;;;;;20648025;28;20034;-56
2021/10/10 04:26:54;;;;;;;6.30;4.20;;;18.80;59.70;;;;;;20646699;28;20046;-52
2021/10/10 04:36:55;;;;;;;6.38;4.50;;;18.80;59.60;;;;;;20646983;28;20038;-53
2021/10/10 04:46:56;;;;;;;5.13;4.18;;;18.80;59.40;;;;;;20654640;28;20042;-53
2021/10/10 04:56:57;;;;;;;5.47;3.97;;;18.80;59.40;;;;;;20662274;28;20038;-54
2021/10/10 05:06:57;;;;;;;6.78;4.90;;;18.80;59.30;;;;;;20667253;28;20068;-51
2021/10/10 05:16:58;;;;;;;7.55;4.43;;;18.80;59.00;;;;;;20660017;28;20037;-54
2021/10/10 05:27:00;;;;;;;10.20;4.82;;;18.70;59.10;;;;;;20658894;28;20416;-54
2021/10/10 05:37:01;;;;;;;5.85;4.35;;;18.70;58.80;;;;;;20670331;28;20121;-53
2021/10/10 05:47:01;;;;;;;5.95;4.43;;;18.70;58.90;;;;;;20659199;28;20121;-54
2021/10/10 05:57:09;;;;;;;8.13;4.53;;;18.70;58.60;;;;;;20656793;28;20407;-57
2021/10/10 06:07:10;;;;;;;7.45;4.60;;;18.60;59.20;;;;;;20634777;28;20027;-57
2021/10/10 06:17:11;;;;;;;7.47;4.30;;;18.60;58.60;;;;;;20654631;28;20108;-55
2021/10/10 06:27:11;;;;;;;8.07;4.30;;;18.60;58.60;;;;;;20582969;28;20054;-57
2021/10/10 06:37:12;;;;;;;6.17;4.37;;;18.60;58.40;;;;;;20604187;28;20677;-54
2021/10/10 06:47:12;;;;;;;6.60;4.20;;;18.60;58.30;;;;;;20616505;28;20121;-57
2021/10/10 06:57:13;;;;;;;8.95;4.22;;;18.60;58.30;;;;;;20645630;28;20477;-53
2021/10/10 07:07:13;;;;;;;11.73;5.07;;;18.70;57.80;;;;;;20647031;28;20058;-51
2021/10/10 07:17:15;;;;;;;15.30;4.97;;;18.80;58.00;;;;;;20593636;28;20165;-51
2021/10/10 07:27:16;;;;;;;11.85;4.70;;;19.00;58.00;;;;;;20610325;28;20684;-52
2021/10/10 07:37:17;;;;;;;29.38;6.50;;;19.20;58.00;;;;;;20632419;28;20033;-51
2021/10/10 07:57:28;;;;;;;25.23;7.20;;;19.50;57.80;;;;;;20637676;28;20033;-50
2021/10/10 08:07:28;;;;;;;18.65;6.95;;;19.60;57.70;;;;;;20652733;28;20105;-52
2021/10/10 08:17:29;;;;;;;31.27;7.63;;;19.90;57.50;;;;;;20640567;28;20114;-51
2021/10/10 08:27:29;;;;;;;19.13;7.43;;;20.10;57.10;;;;;;20664767;28;20038;-53
2021/10/10 08:37:30;;;;;;;26.63;7.97;;;20.30;57.00;;;;;;20679651;28;20034;-51
2021/10/10 08:47:32;;;;;;;24.20;7.45;;;20.40;56.50;;;;;;20625238;28;20113;-56
2021/10/10 08:57:35;;;;;;;20.33;5.45;;;20.60;56.30;;;;;;20618564;28;20485;-51
2021/10/10 09:07:36;;;;;;;18.40;5.25;;;20.80;56.10;;;;;;20622792;28;20035;-54
2021/10/10 09:17:37;;;;;;;21.27;6.75;;;20.70;56.10;;;;;;20646865;28;20042;-56
2021/10/10 09:27:37;;;;;;;15.35;5.13;;;20.70;56.00;;;;;;20659670;28;20038;-55
2021/10/10 09:37:45;;;;;;;18.10;5.13;;;20.70;56.40;;;;;;20659774;28;20041;-55
2021/10/10 09:47:55;;;;;;;11.70;4.97;;;20.70;56.60;;;;;;20657996;28;20030;-55
2021/10/10 09:57:56;;;;;;;12.88;5.00;;;20.60;56.70;;;;;;20628879;28;20034;-54
2021/10/10 10:07:58;;;;;;;11.90;4.35;;;20.60;56.90;;;;;;20647783;28;20081;-57
2021/10/10 10:17:59;;;;;;;8.43;4.13;;;20.60;56.90;;;;;;20614192;28;20409;-55
2021/10/10 10:28:03;;;;;;;17.25;5.07;;;20.60;57.10;;;;;;20641002;28;20109;-57
2021/10/10 10:38:03;;;;;;;12.93;4.32;;;20.60;57.30;;;;;;20633717;28;20110;-55
2021/10/10 10:48:27;;;;;;;19.85;5.05;;;20.60;57.50;;;;;;20620778;28;20109;-56
2021/10/10 10:58:46;;;;;;;10.63;4.82;;;20.50;56.90;;;;;;20646487;28;20037;-58
2021/10/10 11:08:47;;;;;;;9.13;4.32;;;20.60;56.80;;;;;;20637431;28;20030;-57
2021/10/10 11:18:53;;;;;;;10.07;4.70;;;20.50;56.80;;;;;;20645809;28;20042;-57
2021/10/10 11:28:56;;;;;;;8.45;4.40;;;20.50;57.10;;;;;;20645567;28;20061;-54
2021/10/10 11:38:57;;;;;;;9.13;4.07;;;20.50;57.10;;;;;;20623729;28;20117;-58
2021/10/10 11:48:58;;;;;;;11.68;5.25;;;20.40;57.00;;;;;;20610644;28;20061;-57
2021/10/10 11:59:12;;;;;;;12.35;5.55;;;20.40;57.00;;;;;;20646257;28;20034;-54
2021/10/10 12:09:12;;;;;;;8.65;4.97;;;20.40;56.70;;;;;;20647582;28;20057;-57
2021/10/10 12:19:13;;;;;;;9.47;5.60;;;20.40;56.60;;;;;;20646253;28;20031;-55
2021/10/10 12:29:28;;;;;;;9.15;5.50;;;20.40;56.50;;;;;;20646456;28;20082;-58
2021/10/10 12:39:42;;;;;;;6.68;4.75;;;20.40;56.30;;;;;;20648769;28;20485;-55
2021/10/10 12:49:42;;;;;;;8.52;5.07;;;20.40;56.10;;;;;;20648176;28;20045;-58
2021/10/10 12:59:51;;;;;;;7.93;5.20;;;20.40;55.70;;;;;;20660382;28;20489;-58
2021/10/10 13:09:53;;;;;;;6.50;4.40;;;20.40;55.40;;;;;;20656720;28;20481;-58
2021/10/10 13:19:54;;;;;;;6.28;4.25;;;20.50;55.50;;;;;;20660129;28;20093;-54
2021/10/10 13:29:54;;;;;;;11.13;5.13;;;20.50;55.50;;;;;;20659498;28;20485;-54
2021/10/10 13:39:55;;;;;;;5.68;4.03;;;20.50;55.60;;;;;;20627121;23;20066;-60
2021/10/10 13:49:55;;;;;;;6.65;5.03;;;20.60;55.70;;;;;;20586975;28;20158;-61
2021/10/10 13:59:56;;;;;;;7.88;5.25;;;20.50;55.80;;;;;;20571894;28;20030;-63
2021/10/10 14:09:56;;;;;;;5.75;3.95;;;20.50;56.00;;;;;;20570374;28;20027;-63
2021/10/10 14:19:57;;;;;;;6.75;4.03;;;20.50;56.00;;;;;;20582879;28;20485;-61
2021/10/10 14:29:58;;;;;;;6.50;3.77;;;20.50;56.10;;;;;;20566599;28;20549;-62
2021/10/10 14:39:59;;;;;;;5.88;3.28;;;20.50;56.20;;;;;;20581874;28;20470;-59
2021/10/10 14:49:59;;;;;;;10.52;4.13;;;20.50;56.10;;;;;;20569300;28;20027;-62
2021/10/10 15:00:00;;;;;;;6.80;3.77;;;20.50;55.30;;;;;;20540773;28;20035;-61
2021/10/10 15:10:05;;;;;;;12.67;3.97;;;20.40;54.80;;;;;;20564186;28;21210;-63
2021/10/10 15:20:07;;;;;;;12.45;5.13;;;20.40;54.30;;;;;;20562841;28;20512;-62
2021/10/10 15:30:08;;;;;;;15.73;4.93;;;20.40;54.50;;;;;;20562148;28;20674;-62
2021/10/10 15:40:09;;;;;;;9.88;4.20;;;20.30;53.50;;;;;;20574166;28;20030;-59
2021/10/10 15:50:10;;;;;;;10.82;4.47;;;20.30;54.60;;;;;;20577890;28;20051;-60
2021/10/10 16:00:14;;;;;;;14.43;4.13;;;20.20;54.90;;;;;;20574259;28;20513;-60
2021/10/10 16:10:15;;;;;;;15.57;6.15;;;20.20;55.30;;;;;;20576837;28;20031;-62
2021/10/10 16:20:16;;;;;;;15.38;4.88;;;20.20;55.90;;;;;;20573829;28;20038;-61
2021/10/10 16:30:16;;;;;;;13.60;4.97;;;20.10;56.10;;;;;;20568411;28;20030;-61
2021/10/10 16:40:30;;;;;;;25.10;6.85;;;20.10;56.20;;;;;;20557460;28;20030;-61
2021/10/10 16:50:31;;;;;;;16.58;6.80;;;20.00;56.70;;;;;;20583223;28;20034;-61
2021/10/10 17:00:33;;;;;;;21.65;7.47;;;20.10;56.80;;;;;;20567395;28;20039;-61
2021/10/10 17:10:38;;;;;;;20.52;7.68;;;20.20;59.80;;;;;;20582285;28;20461;-61
2021/10/10 17:20:38;;;;;;;18.38;7.68;;;20.50;59.60;;;;;;20585952;28;20039;-59
2021/10/10 17:30:39;;;;;;;20.58;6.30;;;20.60;59.30;;;;;;20583164;28;20035;-63
2021/10/10 17:40:42;;;;;;;18.70;5.50;;;20.70;59.00;;;;;;20578977;28;20037;-63
2021/10/10 17:50:43;;;;;;;21.38;7.07;;;20.70;58.50;;;;;;20569773;28;20114;-64
2021/10/10 18:20:53;;;;;;;16.73;6.93;;;20.70;58.40;;;;;;20564419;28;20405;-61
2021/10/10 18:30:54;;;;;;;19.20;7.10;;;20.70;58.40;;;;;;20574255;28;20034;-63
2021/10/10 18:40:55;;;;;;;25.08;7.22;;;20.70;58.80;;;;;;20580712;28;20100;-63
2021/10/10 18:50:56;;;;;;;20.17;5.68;;;20.70;58.70;;;;;;20581679;28;20035;-62
2021/10/10 19:00:56;;;;;;;14.83;5.70;;;20.70;58.70;;;;;;20565566;28;20110;-62
2021/10/10 19:10:57;;;;;;;18.63;6.30;;;20.60;58.60;;;;;;20579500;28;20109;-61
2021/10/10 19:20:58;;;;;;;13.18;5.30;;;20.70;58.50;;;;;;20579485;28;20027;-63
2021/10/10 19:30:58;;;;;;;15.37;6.10;;;20.70;58.40;;;;;;20577927;28;20050;-64
2021/10/10 19:40:59;;;;;;;13.68;4.90;;;20.70;58.40;;;;;;20549149;23;20041;-53
2021/10/10 19:51:00;;;;;;;22.13;5.75;;;20.70;58.30;;;;;;20498471;28;20556;-49
2021/10/10 20:01:01;;;;;;;12.48;6.03;;;20.70;58.10;;;;;;20537969;28;20054;-50
2021/10/10 20:11:04;;;;;;;8.85;3.70;;;20.70;58.40;;;;;;20538401;28;20058;-52
2021/10/10 20:21:05;;;;;;;7.78;4.22;;;20.70;58.70;;;;;;20505096;28;20030;-50
2021/10/10 20:31:06;;;;;;;9.55;4.40;;;20.70;58.50;;;;;;20541309;28;20135;-56
2021/10/10 20:41:08;;;;;;;9.67;4.70;;;20.70;58.50;;;;;;20529157;28;20203;-54
2021/10/10 20:51:08;;;;;;;8.95;4.10;;;20.80;58.40;;;;;;20519665;28;20513;-55
2021/10/10 21:01:10;;;;;;;10.23;4.23;;;20.80;58.30;;;;;;20528793;28;20031;-50
2021/10/10 21:11:11;;;;;;;11.20;4.38;;;20.80;58.30;;;;;;20518964;28;20462;-55
2021/10/10 21:21:11;;;;;;;12.75;3.63;;;20.80;58.00;;;;;;20521298;28;20382;-53
2021/10/10 21:31:21;;;;;;;8.88;4.22;;;20.80;57.90;;;;;;20569504;28;20396;-53
2021/10/10 21:41:22;;;;;;;7.43;3.97;;;20.80;57.90;;;;;;20559198;28;20039;-53
2021/10/10 21:51:22;;;;;;;7.00;3.87;;;20.80;57.80;;;;;;20577498;28;20035;-54
2021/10/10 22:01:23;;;;;;;8.25;4.28;;;20.80;58.10;;;;;;20585362;28;20482;-52
2021/10/10 22:11:24;;;;;;;10.60;4.70;;;20.70;58.10;;;;;;20582969;28;20062;-54
2021/10/10 22:21:25;;;;;;;13.10;4.88;;;20.80;58.10;;;;;;20569382;28;20149;-51
2021/10/10 22:31:27;;;;;;;15.23;4.25;;;20.70;57.50;;;;;;20576810;28;20023;-56
2021/10/10 22:41:30;;;;;;;10.93;4.38;;;20.70;57.20;;;;;;20570344;28;20059;-54
2021/10/10 22:51:34;;;;;;;14.35;4.20;;;20.60;57.70;;;;;;20581251;28;20382;-51
2021/10/10 23:01:35;;;;;;;8.70;4.22;;;20.60;57.30;;;;;;20580659;28;20038;-51
2021/10/10 23:11:35;;;;;;;9.95;4.60;;;20.50;57.20;;;;;;20578999;28;20027;-51
2021/10/10 23:21:36;;;;;;;4.85;3.75;;;20.40;57.00;;;;;;20566472;28;20031;-48
2021/10/10 23:31:36;;;;;;;9.10;4.53;;;20.40;56.80;;;;;;20579498;28;20031;-58
2021/10/10 23:41:37;;;;;;;7.70;4.20;;;20.30;56.70;;;;;;20572313;28;20477;-55
2021/10/10 23:51:37;;;;;;;6.45;4.00;;;20.30;56.20;;;;;;20577531;28;20347;-49
